Time;durP1;ratioP1;P1;durP2;ratioP2;P2;SDS_P1;SDS_P2;PMS_P1;PMS_P2;Temp;Humidity;BMP_temperature;BMP_pressure;BME280_temperature;BME280_humidity;BME280_pressure;Samples;Min_cycle;Max_cycle;Signal;HPM_P1;HPM_P2
2022/08/31 00:05:40;;;;;;;1999.90;999.90;;;15.20;99.90;;;;;;5070072;28;20044;-74
2022/08/31 00:08:06;;;;;;;1999.90;999.90;;;15.20;99.90;;;;;;5070194;28;20479;-74
2022/08/31 00:10:32;;;;;;;1999.90;999.90;;;15.20;99.90;;;;;;5067203;28;20130;-74
2022/08/31 00:12:57;;;;;;;1999.90;999.90;;;15.20;99.90;;;;;;5068318;28;20036;-74
2022/08/31 00:15:24;;;;;;;1999.90;999.90;;;15.10;99.90;;;;;;5053010;28;20044;-74
2022/08/31 00:17:51;;;;;;;1999.90;999.90;;;15.10;99.90;;;;;;5049547;28;20056;-74
2022/08/31 00:20:18;;;;;;;1999.90;999.90;;;15.10;99.90;;;;;;5068168;28;20040;-74
2022/08/31 00:22:44;;;;;;;1999.90;999.90;;;15.00;99.90;;;;;;5053522;28;20044;-74
2022/08/31 00:25:10;;;;;;;1999.90;999.90;;;14.90;99.90;;;;;;5067284;28;20048;-74
2022/08/31 00:27:36;;;;;;;1999.90;999.90;;;14.90;99.90;;;;;;5074191;28;20497;-74
2022/08/31 00:30:04;;;;;;;1999.90;999.90;;;14.90;99.90;;;;;;5061015;28;20221;-74
2022/08/31 00:32:30;;;;;;;1999.90;999.90;;;14.90;99.90;;;;;;5054406;28;20055;-74
2022/08/31 00:34:56;;;;;;;1999.90;999.90;;;14.90;99.90;;;;;;5071429;28;20044;-74
2022/08/31 00:37:21;;;;;;;1999.90;999.90;;;14.90;99.90;;;;;;5073128;28;20044;-74
2022/08/31 00:39:47;;;;;;;1999.90;999.90;;;14.90;99.90;;;;;;5072844;28;20594;-74
2022/08/31 00:42:13;;;;;;;1999.90;999.90;;;14.90;99.90;;;;;;5056041;28;20557;-74
2022/08/31 00:44:39;;;;;;;1999.90;999.90;;;14.90;99.90;;;;;;5054384;28;20047;-74
2022/08/31 00:47:06;;;;;;;1999.90;999.90;;;14.80;99.90;;;;;;5071661;28;20047;-74
2022/08/31 00:49:34;;;;;;;1999.90;999.90;;;14.80;99.90;;;;;;5044328;28;20137;-74
2022/08/31 00:52:05;;;;;;;1999.90;999.90;;;14.80;99.90;;;;;;5055151;28;20173;-74
2022/08/31 00:54:55;;;;;;;1999.90;999.90;;;14.80;99.90;;;;;;5073109;28;20043;-74
2022/08/31 00:57:23;;;;;;;1999.90;999.90;;;14.80;99.90;;;;;;5054735;28;20229;-74
2022/08/31 00:59:49;;;;;;;1999.90;999.90;;;14.80;99.90;;;;;;5056805;28;20445;-74
2022/08/31 01:02:16;;;;;;;1999.90;999.90;;;14.80;99.90;;;;;;5054721;28;20040;-74
2022/08/31 01:04:42;;;;;;;1999.90;999.90;;;14.70;99.90;;;;;;5056968;28;20380;-74
2022/08/31 01:07:08;;;;;;;1999.90;999.90;;;14.70;99.90;;;;;;5053731;28;20556;-74
2022/08/31 01:09:38;;;;;;;1999.90;999.90;;;14.70;99.90;;;;;;5072759;28;20080;-74
2022/08/31 01:12:05;;;;;;;1999.90;999.90;;;14.60;99.90;;;;;;5054699;28;20389;-74
2022/08/31 01:14:31;;;;;;;1999.90;999.90;;;14.50;99.90;;;;;;5070320;28;20055;-74
2022/08/31 01:16:57;;;;;;;1999.90;999.90;;;14.40;99.90;;;;;;5070047;28;20040;-74
2022/08/31 01:19:38;;;;;;;1999.90;999.90;;;14.40;99.90;;;;;;5072614;28;20369;-74
2022/08/31 01:22:23;;;;;;;1999.90;999.90;;;14.30;99.90;;;;;;5082794;28;20496;-74
2022/08/31 01:24:51;;;;;;;1999.90;999.90;;;14.20;99.90;;;;;;5084236;28;20041;-74
2022/08/31 01:27:23;;;;;;;1999.90;999.90;;;14.10;99.90;;;;;;5046429;28;20055;-74
2022/08/31 01:29:49;;;;;;;1999.90;999.90;;;14.00;99.90;;;;;;5071877;28;20048;-73
2022/08/31 01:32:14;;;;;;;1999.90;999.90;;;13.90;99.90;;;;;;5044106;28;20094;-74
2022/08/31 01:34:40;;;;;;;1999.90;999.90;;;13.70;99.90;;;;;;5071259;28;20118;-74
2022/08/31 01:37:06;;;;;;;1999.90;999.90;;;13.70;99.90;;;;;;5072197;28;20071;-74
2022/08/31 01:39:31;;;;;;;1999.90;999.90;;;13.60;99.90;;;;;;5052235;28;20488;-74
2022/08/31 01:41:57;;;;;;;1999.90;999.90;;;13.50;99.90;;;;;;5072320;28;20115;-74
2022/08/31 01:44:24;;;;;;;1999.90;999.90;;;13.40;99.90;;;;;;5053309;28;20040;-73
2022/08/31 01:46:50;;;;;;;1999.90;999.90;;;13.30;99.90;;;;;;5040930;28;20044;-74
2022/08/31 01:49:18;;;;;;;1999.90;999.90;;;13.20;99.90;;;;;;5057606;28;20534;-74
2022/08/31 01:51:44;;;;;;;1999.90;999.90;;;13.00;99.90;;;;;;5072147;28;20044;-74
2022/08/31 01:54:11;;;;;;;1999.90;999.90;;;12.90;99.90;;;;;;5067500;28;20050;-74
2022/08/31 01:56:40;;;;;;;1999.90;999.90;;;12.80;99.90;;;;;;5055487;28;20135;-74
2022/08/31 01:59:08;;;;;;;1999.90;999.90;;;12.70;99.90;;;;;;5072020;28;20480;-74
2022/08/31 02:01:38;;;;;;;1999.90;999.90;;;12.70;99.90;;;;;;5049667;28;20047;-74
2022/08/31 02:04:06;;;;;;;1999.90;999.90;;;12.60;99.90;;;;;;5070512;28;20124;-74
2022/08/31 02:06:33;;;;;;;1999.90;999.90;;;12.50;99.90;;;;;;5053750;28;20422;-74
2022/08/31 02:08:59;;;;;;;1999.90;999.90;;;12.40;99.90;;;;;;5067249;28;20107;-74
2022/08/31 02:11:25;;;;;;;1999.90;999.90;;;12.30;99.90;;;;;;5051995;28;20099;-73
2022/08/31 02:13:50;;;;;;;1999.90;999.90;;;12.30;99.90;;;;;;5045663;28;20051;-74
2022/08/31 02:16:16;;;;;;;1999.90;999.90;;;12.10;99.90;;;;;;5068700;28;20052;-74
2022/08/31 02:18:42;;;;;;;1999.90;999.90;;;12.10;99.90;;;;;;5070630;28;20036;-73
2022/08/31 02:21:07;;;;;;;1999.90;999.90;;;12.00;99.90;;;;;;5054546;28;20082;-74
2022/08/31 02:23:33;;;;;;;1999.90;999.90;;;11.90;99.90;;;;;;5065268;28;20094;-74
2022/08/31 02:25:59;;;;;;;1999.90;999.90;;;11.90;99.90;;;;;;5045372;28;20407;-74
2022/08/31 02:28:25;;;;;;;1999.90;999.90;;;11.80;99.90;;;;;;5055262;28;20135;-74
2022/08/31 02:30:51;;;;;;;1999.90;999.90;;;11.80;99.90;;;;;;5056775;28;20159;-73
2022/08/31 02:33:16;;;;;;;1999.90;999.90;;;11.70;99.90;;;;;;5052617;28;20048;-74
2022/08/31 02:35:42;;;;;;;1999.90;999.90;;;11.60;99.90;;;;;;5044436;28;20051;-74
2022/08/31 02:38:09;;;;;;;1999.90;999.90;;;11.60;99.90;;;;;;5071892;28;20047;-74
2022/08/31 02:40:37;;;;;;;1999.90;999.90;;;11.60;99.90;;;;;;5070970;28;20066;-74
2022/08/31 02:43:08;;;;;;;1999.90;999.90;;;11.50;99.90;;;;;;5063413;28;20097;-73
2022/08/31 02:45:34;;;;;;;1999.90;999.90;;;11.50;99.90;;;;;;5071314;28;20055;-74
2022/08/31 02:48:00;;;;;;;1999.90;999.90;;;11.40;99.90;;;;;;5053348;28;20054;-74
2022/08/31 02:50:26;;;;;;;1999.90;999.90;;;11.30;99.90;;;;;;5070288;28;20039;-74
2022/08/31 02:52:54;;;;;;;1999.90;999.90;;;11.30;99.90;;;;;;5069803;28;20040;-74
2022/08/31 02:55:20;;;;;;;1999.90;999.90;;;11.20;99.90;;;;;;5069612;28;20055;-74
2022/08/31 02:57:46;;;;;;;1999.90;999.90;;;11.20;99.90;;;;;;5068500;28;20403;-74
2022/08/31 03:00:13;;;;;;;1999.90;999.90;;;11.20;99.90;;;;;;5051846;28;20044;-73
2022/08/31 03:02:40;;;;;;;1999.90;999.90;;;11.10;99.90;;;;;;5067592;28;20036;-73
2022/08/31 03:05:07;;;;;;;1999.90;999.90;;;11.10;99.90;;;;;;5052752;28;20120;-74
2022/08/31 03:07:33;;;;;;;1999.90;999.90;;;11.10;99.90;;;;;;5053085;28;20044;-73
2022/08/31 03:10:01;;;;;;;1999.90;999.90;;;11.00;99.90;;;;;;5059387;28;20055;-74
2022/08/31 03:12:27;;;;;;;1999.90;999.90;;;11.00;99.90;;;;;;5054146;28;20051;-74
2022/08/31 03:14:52;;;;;;;1999.90;999.90;;;11.00;99.90;;;;;;5067804;28;20508;-74
2022/08/31 03:17:18;;;;;;;1999.90;999.90;;;10.90;99.90;;;;;;5050100;28;20453;-74
2022/08/31 03:19:43;;;;;;;1999.90;999.90;;;10.90;99.90;;;;;;5065736;28;20484;-74
2022/08/31 03:22:10;;;;;;;1999.90;999.90;;;10.90;99.90;;;;;;5054340;28;20051;-73
2022/08/31 03:24:36;;;;;;;1999.90;999.90;;;10.80;99.90;;;;;;5068033;28;20111;-74
2022/08/31 03:27:01;;;;;;;1999.90;999.90;;;10.80;99.90;;;;;;5052761;28;20127;-74
2022/08/31 03:29:27;;;;;;;1999.90;999.90;;;10.80;99.90;;;;;;5070548;28;20445;-73
2022/08/31 03:31:52;;;;;;;1999.90;999.90;;;10.80;99.90;;;;;;5070333;28;20059;-74
2022/08/31 03:34:18;;;;;;;1999.90;999.90;;;10.80;99.90;;;;;;5059948;28;20514;-73
2022/08/31 03:36:44;;;;;;;1999.90;999.90;;;10.80;99.90;;;;;;5067439;28;20044;-74
2022/08/31 03:39:09;;;;;;;1999.90;999.90;;;10.70;99.90;;;;;;5049408;28;20169;-74
2022/08/31 03:41:35;;;;;;;1999.90;999.90;;;10.80;99.90;;;;;;5070223;28;20051;-74
2022/08/31 03:44:00;;;;;;;1999.90;999.90;;;10.80;99.90;;;;;;5070548;28;20050;-73
2022/08/31 03:46:30;;;;;;;1999.90;999.90;;;10.80;99.90;;;;;;5066475;28;20400;-73
2022/08/31 03:48:56;;;;;;;1999.90;999.90;;;10.80;99.90;;;;;;5053230;28;20044;-74
2022/08/31 03:51:21;;;;;;;1999.90;999.90;;;10.70;99.90;;;;;;5045938;28;20062;-74
2022/08/31 03:53:47;;;;;;;1999.90;999.90;;;10.70;99.90;;;;;;5053903;28;20483;-74
2022/08/31 03:56:12;;;;;;;1999.90;999.90;;;10.70;99.90;;;;;;5052100;28;20168;-73
2022/08/31 03:58:38;;;;;;;1999.90;999.90;;;10.60;99.90;;;;;;5070563;28;20079;-73
2022/08/31 04:01:04;;;;;;;1999.90;999.90;;;10.60;99.90;;;;;;5074284;28;20039;-73
2022/08/31 04:03:30;;;;;;;1999.90;999.90;;;10.60;99.90;;;;;;5063638;28;20044;-73
2022/08/31 04:05:56;;;;;;;1999.90;999.90;;;10.60;99.90;;;;;;5073541;28;20039;-73
2022/08/31 04:08:22;;;;;;;1999.90;999.90;;;10.60;99.90;;;;;;5054975;28;20515;-74
2022/08/31 04:10:50;;;;;;;1999.90;999.90;;;10.60;99.90;;;;;;5053941;28;20059;-74
2022/08/31 04:13:16;;;;;;;1999.90;999.90;;;10.60;99.90;;;;;;5064677;28;20040;-73
2022/08/31 04:15:41;;;;;;;1999.90;999.90;;;10.60;99.90;;;;;;5073727;28;20510;-74
2022/08/31 04:18:07;;;;;;;1999.90;999.90;;;10.60;99.90;;;;;;5055044;28;20114;-73
2022/08/31 04:20:35;;;;;;;1999.90;999.90;;;10.60;99.90;;;;;;5054574;28;20043;-74
2022/08/31 04:23:00;;;;;;;1999.90;999.90;;;10.60;99.90;;;;;;5049388;28;20090;-74
2022/08/31 04:25:26;;;;;;;1999.90;999.90;;;10.60;99.90;;;;;;5067016;28;20056;-74
2022/08/31 04:27:53;;;;;;;1999.90;999.90;;;10.60;99.90;;;;;;5071521;28;20556;-74
2022/08/31 04:30:20;;;;;;;1999.90;999.90;;;10.50;99.90;;;;;;5051071;28;20064;-74
2022/08/31 04:32:51;;;;;;;1999.90;999.90;;;10.50;99.90;;;;;;5070943;28;20507;-74
2022/08/31 04:35:17;;;;;;;1999.90;999.90;;;10.50;99.90;;;;;;5059834;28;20055;-74
2022/08/31 04:37:42;;;;;;;1999.90;999.90;;;10.50;99.90;;;;;;5070579;28;20043;-73
2022/08/31 04:40:17;;;;;;;1999.90;999.90;;;10.40;99.90;;;;;;5072285;28;20044;-74
2022/08/31 04:42:43;;;;;;;1999.90;999.90;;;10.40;99.90;;;;;;5072366;28;20048;-73
2022/08/31 04:45:11;;;;;;;1999.90;999.90;;;10.40;99.90;;;;;;5073599;28;20044;-74
2022/08/31 04:47:38;;;;;;;1999.90;999.90;;;10.40;99.90;;;;;;5073306;28;20040;-73
2022/08/31 04:50:06;;;;;;;1999.90;999.90;;;10.30;99.90;;;;;;5068238;28;20075;-73
2022/08/31 04:52:31;;;;;;;1999.90;999.90;;;10.30;99.90;;;;;;5072322;28;20075;-73
2022/08/31 04:54:57;;;;;;;1999.90;999.90;;;10.30;99.90;;;;;;5073474;28;20100;-73
2022/08/31 04:57:23;;;;;;;1999.90;999.90;;;10.30;99.90;;;;;;5073124;28;20085;-73
2022/08/31 04:59:48;;;;;;;1999.90;999.90;;;10.30;99.90;;;;;;5065510;28;20237;-74
2022/08/31 05:02:14;;;;;;;1999.90;999.90;;;10.20;99.90;;;;;;5055957;28;20085;-74
2022/08/31 05:04:39;;;;;;;1999.90;999.90;;;10.30;99.90;;;;;;5073390;28;20130;-73
2022/08/31 05:07:05;;;;;;;1999.90;999.90;;;10.30;99.90;;;;;;5073548;28;20173;-73
2022/08/31 05:09:31;;;;;;;1999.90;999.90;;;10.30;99.90;;;;;;5068651;28;20045;-73
2022/08/31 05:11:56;;;;;;;1999.90;999.90;;;10.30;99.90;;;;;;5053743;28;20119;-74
2022/08/31 05:14:23;;;;;;;1999.90;999.90;;;10.30;99.90;;;;;;5049626;28;20039;-73
2022/08/31 05:16:49;;;;;;;1999.90;999.90;;;10.30;99.90;;;;;;5067558;28;20179;-73
2022/08/31 05:19:15;;;;;;;1999.90;999.90;;;10.40;99.90;;;;;;5072475;28;20043;-73
2022/08/31 05:21:42;;;;;;;1999.90;999.90;;;10.40;99.90;;;;;;5054560;28;20036;-73
2022/08/31 05:24:21;;;;;;;1999.90;999.90;;;10.40;99.90;;;;;;5051011;28;20050;-73
2022/08/31 05:26:49;;;;;;;1999.90;999.90;;;10.50;99.90;;;;;;5053835;28;20047;-74
2022/08/31 05:29:18;;;;;;;1999.90;999.90;;;10.60;99.90;;;;;;5056130;28;20048;-73
2022/08/31 05:31:45;;;;;;;1999.90;999.90;;;10.60;99.90;;;;;;5066595;28;20098;-73
2022/08/31 05:34:13;;;;;;;1999.90;999.90;;;10.60;99.90;;;;;;5051749;28;20048;-73
2022/08/31 05:36:41;;;;;;;1999.90;999.90;;;10.70;99.90;;;;;;5071981;28;20040;-74
2022/08/31 05:39:10;;;;;;;1999.90;999.90;;;10.70;99.90;;;;;;5045341;28;20043;-73
2022/08/31 05:41:38;;;;;;;1999.90;999.90;;;10.80;99.90;;;;;;5067463;28;20078;-74
2022/08/31 05:44:05;;;;;;;1999.90;999.90;;;10.80;99.90;;;;;;5054686;28;20422;-74
2022/08/31 05:46:32;;;;;;;1999.90;999.90;;;10.90;99.90;;;;;;5066177;28;20047;-73
2022/08/31 05:48:57;;;;;;;1999.90;999.90;;;11.00;99.90;;;;;;5071976;28;20061;-74
2022/08/31 05:51:23;;;;;;;1999.90;999.90;;;11.10;99.90;;;;;;5048663;28;20052;-74
2022/08/31 05:53:49;;;;;;;1999.90;999.90;;;11.10;99.90;;;;;;5068358;28;20051;-73
2022/08/31 05:56:18;;;;;;;1999.90;999.90;;;11.20;99.90;;;;;;5055271;28;20036;-73
2022/08/31 05:58:45;;;;;;;1999.90;999.90;;;11.30;99.90;;;;;;5055064;28;20130;-73
2022/08/31 06:01:31;;;;;;;1999.90;999.90;;;11.40;99.90;;;;;;5049722;28;20036;-73
2022/08/31 06:03:59;;;;;;;1999.90;999.90;;;11.50;99.90;;;;;;5069310;28;20040;-73
2022/08/31 06:06:25;;;;;;;1999.90;999.90;;;11.70;99.90;;;;;;5071963;28;20077;-74
2022/08/31 06:08:52;;;;;;;1999.90;999.90;;;11.80;99.90;;;;;;5069412;28;20048;-74
2022/08/31 06:11:21;;;;;;;1999.90;999.90;;;11.90;99.90;;;;;;5055041;28;20050;-74
2022/08/31 06:13:49;;;;;;;1999.90;999.90;;;12.00;99.90;;;;;;5048039;28;20059;-74
2022/08/31 06:16:16;;;;;;;1999.90;999.90;;;12.20;99.90;;;;;;5071521;28;20040;-73
2022/08/31 06:18:48;;;;;;;1999.90;999.90;;;12.30;99.90;;;;;;5054848;28;20032;-73
2022/08/31 06:21:16;;;;;;;1999.90;999.90;;;12.50;99.90;;;;;;5041306;28;20036;-74
2022/08/31 06:23:42;;;;;;;1999.90;999.90;;;12.60;99.90;;;;;;5063879;28;20158;-73
2022/08/31 06:26:14;;;;;;;1999.90;999.90;;;12.70;99.90;;;;;;5069034;28;20169;-74
2022/08/31 06:28:41;;;;;;;1999.90;999.90;;;12.90;99.90;;;;;;5054881;28;20048;-73
2022/08/31 06:31:14;;;;;;;1999.90;999.90;;;13.00;99.90;;;;;;5070930;28;20052;-73
2022/08/31 06:33:41;;;;;;;1999.90;999.90;;;13.20;99.90;;;;;;5044481;28;20055;-74
2022/08/31 06:36:13;;;;;;;1999.90;999.90;;;13.30;99.90;;;;;;5051902;28;20044;-74
2022/08/31 06:38:39;;;;;;;1999.90;999.90;;;13.50;99.90;;;;;;5070764;28;20036;-74
2022/08/31 06:41:17;;;;;;;1999.90;999.90;;;13.60;99.90;;;;;;5070853;28;20036;-73
2022/08/31 06:43:44;;;;;;;1999.90;999.90;;;13.80;99.90;;;;;;5061440;28;20032;-74
2022/08/31 06:46:11;;;;;;;1999.90;999.90;;;14.00;99.90;;;;;;5069484;28;20051;-74
2022/08/31 06:48:37;;;;;;;1999.90;999.90;;;14.10;99.90;;;;;;5068449;28;20787;-74
2022/08/31 06:51:04;;;;;;;1999.90;999.90;;;14.30;99.90;;;;;;5046467;28;20047;-74
2022/08/31 06:53:29;;;;;;;1999.90;999.90;;;14.40;99.90;;;;;;5070542;28;20095;-74
2022/08/31 06:55:55;;;;;;;1999.90;999.90;;;14.50;99.90;;;;;;5069303;28;20051;-74
2022/08/31 06:58:21;;;;;;;1999.90;999.90;;;14.70;99.90;;;;;;5053274;28;20040;-74
2022/08/31 07:00:48;;;;;;;1999.90;999.90;;;14.90;99.90;;;;;;5070510;28;20423;-74
2022/08/31 07:03:23;;;;;;;1999.90;999.90;;;15.10;99.90;;;;;;5054265;28;20086;-74
2022/08/31 07:05:52;;;;;;;1999.90;999.90;;;15.20;99.90;;;;;;5068128;28;20062;-74
2022/08/31 07:08:18;;;;;;;1999.90;999.90;;;15.30;99.90;;;;;;5064229;28;20051;-74
2022/08/31 07:10:45;;;;;;;1999.90;999.90;;;15.40;99.90;;;;;;5088783;28;20031;-74
2022/08/31 07:13:10;;;;;;;1999.90;999.90;;;15.50;99.90;;;;;;5069425;28;20031;-74
2022/08/31 07:15:36;;;;;;;1999.90;999.90;;;15.70;99.90;;;;;;5069574;28;20039;-74
2022/08/31 07:18:02;;;;;;;1999.90;999.90;;;15.80;99.90;;;;;;5088412;28;20040;-74
2022/08/31 07:20:27;;;;;;;1999.90;999.90;;;16.00;99.90;;;;;;5065213;28;20389;-74
2022/08/31 07:22:53;;;;;;;1999.90;999.90;;;16.10;99.90;;;;;;5052382;28;20498;-74
2022/08/31 07:25:19;;;;;;;1999.90;999.90;;;16.30;99.90;;;;;;5070784;28;20149;-74
2022/08/31 07:27:45;;;;;;;1999.90;999.90;;;16.40;99.90;;;;;;5062987;28;20039;-74
2022/08/31 07:30:11;;;;;;;1999.90;999.90;;;16.40;99.90;;;;;;5068536;28;20051;-74
2022/08/31 07:32:37;;;;;;;1999.90;999.90;;;16.50;99.90;;;;;;5053789;28;20412;-74
2022/08/31 07:35:04;;;;;;;1999.90;999.90;;;16.60;99.90;;;;;;5038170;28;20043;-74
2022/08/31 07:43:03;;;;;;;1999.90;999.90;;;16.90;99.90;;;;;;5070375;28;20071;-73
2022/08/31 07:45:29;;;;;;;1999.90;999.90;;;17.00;99.90;;;;;;5066323;28;20641;-74
2022/08/31 07:47:55;;;;;;;1999.90;999.90;;;17.00;99.90;;;;;;5059959;28;20126;-74
2022/08/31 07:50:21;;;;;;;1999.90;999.90;;;17.10;99.90;;;;;;5070522;28;20456;-74
2022/08/31 07:52:53;;;;;;;1999.90;999.90;;;17.10;99.90;;;;;;5069362;28;20475;-74
2022/08/31 07:55:21;;;;;;;1999.90;999.90;;;17.20;99.90;;;;;;5053503;28;20040;-74
2022/08/31 07:57:47;;;;;;;1999.90;999.90;;;17.20;99.90;;;;;;5042247;28;20059;-74
2022/08/31 08:00:17;;;;;;;1999.90;999.90;;;17.30;99.90;;;;;;5066129;28;20086;-74
2022/08/31 08:02:45;;;;;;;1999.90;999.90;;;17.40;99.90;;;;;;5053639;28;20047;-74
2022/08/31 08:05:19;;;;;;;1999.90;999.90;;;17.40;99.90;;;;;;5069910;28;20066;-74
2022/08/31 08:07:47;;;;;;;1999.90;999.90;;;17.40;99.90;;;;;;5064457;28;20056;-73
2022/08/31 08:10:14;;;;;;;1999.90;999.90;;;17.50;99.90;;;;;;5065093;28;20116;-74
2022/08/31 08:12:47;;;;;;;1999.90;999.90;;;17.60;99.90;;;;;;5069677;28;20042;-74
2022/08/31 08:15:13;;;;;;;;;;;17.70;99.90;;;;;;5069580;28;20559;-74
2022/08/31 08:17:39;;;;;;;1999.90;999.90;;;17.70;99.90;;;;;;5068822;28;20014;-73
2022/08/31 08:20:06;;;;;;;1999.90;999.90;;;17.90;99.90;;;;;;5067683;28;20123;-74
2022/08/31 08:22:32;;;;;;;1999.90;999.90;;;17.90;99.90;;;;;;5052182;28;20047;-73
2022/08/31 08:24:59;;;;;;;1999.90;999.90;;;18.00;99.90;;;;;;5064518;28;20062;-74
2022/08/31 08:27:24;;;;;;;1999.90;999.90;;;18.10;99.90;;;;;;5048109;28;20047;-74
2022/08/31 08:29:50;;;;;;;1999.90;999.90;;;18.20;99.90;;;;;;5046153;28;20094;-73
2022/08/31 08:32:17;;;;;;;1999.90;999.90;;;18.30;99.90;;;;;;5048715;28;20051;-74
2022/08/31 08:34:43;;;;;;;1999.90;999.90;;;18.40;99.90;;;;;;5068389;28;20044;-74
2022/08/31 08:37:13;;;;;;;1999.90;999.90;;;18.40;99.90;;;;;;5069926;28;20055;-74
2022/08/31 08:39:41;;;;;;;1999.90;999.90;;;18.60;99.90;;;;;;5064332;28;20048;-75
2022/08/31 08:42:10;;;;;;;1999.90;999.90;;;18.60;99.60;;;;;;5063066;28;20503;-75
2022/08/31 08:44:37;;;;;;;1999.90;999.90;;;18.60;99.90;;;;;;5068186;28;20043;-74
2022/08/31 08:47:13;;;;;;;1999.90;999.90;;;18.70;98.90;;;;;;5060376;28;20043;-74
2022/08/31 08:49:51;;;;;;;1999.90;999.90;;;18.90;98.90;;;;;;5073373;28;20457;-74
2022/08/31 08:52:40;;;;;;;1999.90;999.90;;;19.20;98.80;;;;;;5088780;28;20046;-75
2022/08/31 08:55:14;;;;;;;1999.90;999.90;;;19.90;96.90;;;;;;5060180;28;20048;-75
2022/08/31 08:57:41;;;;;;;1999.90;999.90;;;20.70;96.30;;;;;;5056951;28;20044;-74
2022/08/31 09:00:14;;;;;;;1999.90;999.90;;;21.30;94.90;;;;;;5055870;28;20403;-74
2022/08/31 09:02:57;;;;;;;1999.90;999.90;;;21.70;91.60;;;;;;5069071;28;20039;-75
2022/08/31 09:05:41;;;;;;;1999.90;999.90;;;22.20;92.20;;;;;;5056235;28;20051;-75
2022/08/31 09:08:16;;;;;;;1999.90;999.90;;;22.50;90.50;;;;;;5073213;28;20131;-75
2022/08/31 09:10:55;;;;;;;1999.90;999.90;;;22.70;88.90;;;;;;5059146;28;20110;-75
2022/08/31 09:13:42;;;;;;;1999.90;999.90;;;22.90;89.20;;;;;;5070446;28;20219;-75
2022/08/31 09:16:43;;;;;;;1999.90;999.90;;;23.50;88.20;;;;;;5059099;28;20116;-74
2022/08/31 09:19:15;;;;;;;1999.90;999.90;;;24.00;85.80;;;;;;5056227;28;20384;-75
2022/08/31 09:21:50;;;;;;;1999.90;999.90;;;24.20;81.70;;;;;;5055556;28;20044;-75
2022/08/31 09:24:22;;;;;;;1999.90;999.90;;;24.20;80.20;;;;;;5050879;28;20399;-75
2022/08/31 09:26:57;;;;;;;1999.90;999.90;;;24.40;78.10;;;;;;5072780;28;20097;-75
2022/08/31 09:29:29;;;;;;;1999.90;999.90;;;24.50;80.50;;;;;;5072638;28;20067;-75
2022/08/31 09:32:00;;;;;;;;;;;24.90;79.80;;;;;;5069319;28;20056;-75
2022/08/31 09:34:30;;;;;;;1999.90;999.90;;;24.80;76.20;;;;;;5069210;28;19997;-76
2022/08/31 09:37:22;;;;;;;1999.90;999.90;;;24.70;76.60;;;;;;5050498;28;20052;-76
2022/08/31 09:39:51;;;;;;;1999.90;999.90;;;24.80;73.90;;;;;;5070535;28;20399;-76
2022/08/31 09:42:39;;;;;;;1999.90;999.90;;;24.50;74.40;;;;;;5055877;28;20040;-75
2022/08/31 09:45:16;;;;;;;1999.90;999.90;;;24.20;74.40;;;;;;5053999;28;20051;-75
2022/08/31 09:47:54;;;;;;;1999.90;999.90;;;24.20;72.90;;;;;;5070830;28;20154;-75
2022/08/31 09:50:34;;;;;;;1999.90;999.90;;;23.80;73.30;;;;;;5072321;28;20164;-75
2022/08/31 09:56:14;;;;;;;1999.90;999.90;;;23.40;74.30;;;;;;5066865;28;20063;-75
2022/08/31 09:58:48;;;;;;;1999.90;999.90;;;23.10;73.30;;;;;;5072405;28;20532;-75
2022/08/31 10:01:19;;;;;;;1999.90;999.90;;;23.00;73.60;;;;;;5071593;28;20132;-75
2022/08/31 10:03:46;;;;;;;1999.90;999.90;;;23.10;73.70;;;;;;5067252;28;20468;-75
2022/08/31 10:06:36;;;;;;;1999.90;999.90;;;23.30;73.00;;;;;;5071174;28;20388;-74
2022/08/31 10:09:09;;;;;;;1999.90;999.90;;;23.40;71.80;;;;;;5068265;28;20039;-74
2022/08/31 10:11:38;;;;;;;1999.90;999.90;;;23.30;71.00;;;;;;5062638;28;20043;-76
2022/08/31 10:14:21;;;;;;;1999.90;999.90;;;23.10;71.40;;;;;;5068493;28;20040;-76
2022/08/31 10:17:17;;;;;;;1999.90;999.90;;;23.10;73.50;;;;;;5068832;28;20048;-75
2022/08/31 10:20:08;;;;;;;1999.90;999.90;;;23.20;72.60;;;;;;5059402;28;20039;-75
2022/08/31 10:22:40;;;;;;;1999.90;999.90;;;23.30;73.20;;;;;;5067565;28;20039;-75
2022/08/31 10:25:31;;;;;;;1999.90;999.90;;;23.40;71.60;;;;;;5053878;28;20551;-74
2022/08/31 10:28:05;;;;;;;1999.90;999.90;;;23.60;73.80;;;;;;5069755;28;20088;-75
2022/08/31 10:30:59;;;;;;;1999.90;999.90;;;23.70;74.90;;;;;;5066225;28;20060;-75
2022/08/31 10:35:02;;;;;;;1999.90;999.90;;;23.80;73.40;;;;;;5055340;28;20044;-74
2022/08/31 10:36:25;;;;;;;1999.90;999.90;;;23.40;70.10;;;;;;5063694;28;20423;-75
2022/08/31 10:38:53;;;;;;;1999.90;999.90;;;22.90;71.90;;;;;;5044609;28;20036;-75
2022/08/31 10:41:29;;;;;;;1999.90;999.90;;;22.40;71.60;;;;;;5071320;28;20538;-75
2022/08/31 10:44:16;;;;;;;1999.90;999.90;;;22.30;73.30;;;;;;5044720;28;20059;-75
2022/08/31 10:46:43;;;;;;;1999.90;999.90;;;22.40;73.70;;;;;;5056934;28;20119;-76
2022/08/31 10:49:10;;;;;;;1999.90;999.90;;;22.70;72.90;;;;;;5051677;28;20043;-75
2022/08/31 10:52:05;;;;;;;1999.90;999.90;;;22.90;72.10;;;;;;5099156;28;20063;-75
2022/08/31 10:54:53;;;;;;;1999.90;999.90;;;22.80;71.90;;;;;;5053012;28;20047;-75
2022/08/31 10:57:50;;;;;;;1999.90;999.90;;;22.30;72.40;;;;;;5048975;28;20130;-75
2022/08/31 11:00:40;;;;;;;1999.90;999.90;;;21.80;73.20;;;;;;5070542;28;20514;-75
2022/08/31 11:03:24;;;;;;;1999.90;999.90;;;21.50;74.40;;;;;;5054815;28;20398;-75
2022/08/31 11:05:59;;;;;;;1999.90;999.90;;;21.60;75.30;;;;;;5054540;28;20380;-75
2022/08/31 11:09:01;;;;;;;1999.90;999.90;;;21.90;76.60;;;;;;5066585;28;20040;-75
2022/08/31 11:11:39;;;;;;;1999.90;999.90;;;22.40;73.80;;;;;;5043886;28;20491;-75
2022/08/31 11:14:33;;;;;;;1999.90;999.90;;;22.50;72.00;;;;;;5060845;28;20119;-74
2022/08/31 11:17:31;;;;;;;1999.90;999.90;;;22.60;71.00;;;;;;5069492;28;20466;-74
2022/08/31 11:20:38;;;;;;;1999.90;999.90;;;22.90;71.00;;;;;;5064757;28;20127;-75
2022/08/31 11:23:16;;;;;;;1999.90;999.90;;;23.30;71.00;;;;;;5068712;28;20128;-74
2022/08/31 11:26:06;;;;;;;1999.90;999.90;;;23.50;71.70;;;;;;5070754;28;20084;-75
2022/08/31 11:28:57;;;;;;;1999.90;999.90;;;23.80;67.70;;;;;;5068092;28;20054;-74
2022/08/31 11:31:27;;;;;;;1999.90;999.90;;;24.00;68.20;;;;;;5067193;28;20055;-74
2022/08/31 11:33:56;;;;;;;1999.90;999.90;;;24.20;70.00;;;;;;5062399;28;20109;-75
2022/08/31 11:36:51;;;;;;;1999.90;999.90;;;24.30;68.10;;;;;;5044505;28;20045;-73
2022/08/31 11:39:29;;;;;;;1999.90;999.90;;;24.40;63.40;;;;;;5055915;28;20098;-74
2022/08/31 11:41:57;;;;;;;1999.90;999.90;;;24.30;65.10;;;;;;5067017;28;20040;-75
2022/08/31 11:44:29;;;;;;;1999.90;999.90;;;24.20;65.30;;;;;;5054076;28;20044;-74
2022/08/31 11:47:03;;;;;;;1999.90;999.90;;;24.20;66.50;;;;;;5062056;28;20036;-75
2022/08/31 11:49:37;;;;;;;1999.90;999.90;;;24.20;66.50;;;;;;5069339;28;20369;-75
2022/08/31 11:52:08;;;;;;;1999.90;999.90;;;24.10;65.50;;;;;;5068975;28;20051;-75
2022/08/31 11:54:40;;;;;;;1999.90;999.90;;;24.00;67.30;;;;;;5070510;28;20043;-74
2022/08/31 11:57:49;;;;;;;1999.90;999.90;;;24.10;66.30;;;;;;5052720;28;20483;-75
2022/08/31 12:00:19;;;;;;;1999.90;999.90;;;24.30;64.80;;;;;;5044588;28;20032;-75
2022/08/31 12:03:01;;;;;;;1999.90;999.90;;;24.40;65.00;;;;;;5099953;28;20351;-75
2022/08/31 12:05:55;;;;;;;1999.90;999.90;;;24.40;64.30;;;;;;5064222;28;20400;-75
2022/08/31 12:08:25;;;;;;;1999.90;999.90;;;24.40;64.00;;;;;;5069968;28;20044;-74
2022/08/31 12:11:00;;;;;;;1999.90;999.90;;;24.60;65.30;;;;;;5069471;28;20563;-75
2022/08/31 12:14:02;;;;;;;1999.90;999.90;;;24.80;66.10;;;;;;5066524;28;20056;-75
2022/08/31 12:16:42;;;;;;;1999.90;999.90;;;25.00;64.40;;;;;;4973005;28;20561;-75
2022/08/31 12:25:36;;;;;;;1999.90;999.90;;;25.00;62.80;;;;;;5000188;28;20053;-75
2022/08/31 12:28:14;;;;;;;1999.90;999.90;;;25.20;61.40;;;;;;4977189;28;20076;-74
2022/08/31 12:30:49;;;;;;;1999.90;999.90;;;25.20;61.60;;;;;;4993158;28;20064;-75
2022/08/31 12:33:19;;;;;;;1999.90;999.90;;;25.40;60.40;;;;;;4982486;28;20075;-74
2022/08/31 12:35:48;;;;;;;1999.90;999.90;;;25.30;60.00;;;;;;4993351;28;20062;-75
2022/08/31 12:38:22;;;;;;;1999.90;999.90;;;25.20;60.90;;;;;;4976130;28;20474;-74